sensor_id;sensor_type;location;lat;lon;timestamp;temperature;humidity
11095;DHT22;5601;44.490;11.400;2023-02-02T00:01:32;7.20;99.90
11095;DHT22;5601;44.490;11.400;2023-02-02T00:03:59;7.10;99.90
11095;DHT22;5601;44.490;11.400;2023-02-02T00:06:26;7.00;99.90
11095;DHT22;5601;44.490;11.400;2023-02-02T00:08:54;6.90;99.90
11095;DHT22;5601;44.490;11.400;2023-02-02T00:11:21;7.00;99.90
11095;DHT22;5601;44.490;11.400;2023-02-02T00:13:48;7.10;99.90
11095;DHT22;5601;44.490;11.400;2023-02-02T00:16:35;7.10;99.90
11095;DHT22;5601;44.490;11.400;2023-02-02T00:19:03;7.00;99.90
11095;DHT22;5601;44.490;11.400;2023-02-02T00:21:30;6.90;99.90
11095;DHT22;5601;44.490;11.400;2023-02-02T00:23:57;6.80;99.90
11095;DHT22;5601;44.490;11.400;2023-02-02T00:26:24;6.70;99.90
11095;DHT22;5601;44.490;11.400;2023-02-02T00:28:51;6.60;99.90
11095;DHT22;5601;44.490;11.400;2023-02-02T00:31:18;6.50;99.90
11095;DHT22;5601;44.490;11.400;2023-02-02T00:33:46;6.50;99.90
11095;DHT22;5601;44.490;11.400;2023-02-02T00:36:13;6.50;99.90
11095;DHT22;5601;44.490;11.400;2023-02-02T00:38:40;6.40;99.90
11095;DHT22;5601;44.490;11.400;2023-02-02T00:41:06;6.40;99.90
11095;DHT22;5601;44.490;11.400;2023-02-02T00:43:33;6.40;99.90
11095;DHT22;5601;44.490;11.400;2023-02-02T00:46:00;6.40;99.90
11095;DHT22;5601;44.490;11.400;2023-02-02T00:48:25;6.50;99.90
11095;DHT22;5601;44.490;11.400;2023-02-02T00:50:54;6.50;99.90
11095;DHT22;5601;44.490;11.400;2023-02-02T00:53:20;6.50;99.90
11095;DHT22;5601;44.490;11.400;2023-02-02T00:55:47;6.40;99.90
11095;DHT22;5601;44.490;11.400;2023-02-02T00:58:14;6.40;99.90
11095;DHT22;5601;44.490;11.400;2023-02-02T01:00:40;6.50;99.90
11095;DHT22;5601;44.490;11.400;2023-02-02T01:03:08;6.40;99.90
11095;DHT22;5601;44.490;11.400;2023-02-02T01:05:37;6.40;99.90
11095;DHT22;5601;44.490;11.400;2023-02-02T01:08:06;6.40;99.90
11095;DHT22;5601;44.490;11.400;2023-02-02T01:10:32;6.30;99.90
11095;DHT22;5601;44.490;11.400;2023-02-02T01:12:59;6.30;99.90
11095;DHT22;5601;44.490;11.400;2023-02-02T01:15:26;6.30;99.90
11095;DHT22;5601;44.490;11.400;2023-02-02T01:17:55;6.40;99.90
11095;DHT22;5601;44.490;11.400;2023-02-02T01:20:21;6.40;99.90
11095;DHT22;5601;44.490;11.400;2023-02-02T01:22:48;6.30;99.90
11095;DHT22;5601;44.490;11.400;2023-02-02T01:25:17;6.30;99.90
11095;DHT22;5601;44.490;11.400;2023-02-02T01:27:44;6.20;99.90
11095;DHT22;5601;44.490;11.400;2023-02-02T01:30:11;6.10;99.90
11095;DHT22;5601;44.490;11.400;2023-02-02T01:32:38;6.00;99.90
11095;DHT22;5601;44.490;11.400;2023-02-02T01:35:05;5.90;99.90
11095;DHT22;5601;44.490;11.400;2023-02-02T01:37:31;5.90;99.90
11095;DHT22;5601;44.490;11.400;2023-02-02T01:39:58;5.90;99.90
11095;DHT22;5601;44.490;11.400;2023-02-02T01:42:26;5.90;99.90
11095;DHT22;5601;44.490;11.400;2023-02-02T01:47:45;5.80;99.90
11095;DHT22;5601;44.490;11.400;2023-02-02T01:50:13;5.80;99.90
11095;DHT22;5601;44.490;11.400;2023-02-02T01:52:41;5.80;99.90
11095;DHT22;5601;44.490;11.400;2023-02-02T01:55:09;5.80;99.90
11095;DHT22;5601;44.490;11.400;2023-02-02T01:57:38;5.80;99.90
11095;DHT22;5601;44.490;11.400;2023-02-02T02:00:07;5.80;99.90
11095;DHT22;5601;44.490;11.400;2023-02-02T02:02:34;5.90;99.90
11095;DHT22;5601;44.490;11.400;2023-02-02T02:05:02;5.90;99.90
11095;DHT22;5601;44.490;11.400;2023-02-02T02:07:30;5.80;99.90
11095;DHT22;5601;44.490;11.400;2023-02-02T02:09:57;5.70;99.90
11095;DHT22;5601;44.490;11.400;2023-02-02T02:12:23;5.60;99.90
11095;DHT22;5601;44.490;11.400;2023-02-02T02:14:52;5.70;99.90
11095;DHT22;5601;44.490;11.400;2023-02-02T02:17:42;5.70;99.90
11095;DHT22;5601;44.490;11.400;2023-02-02T02:20:23;5.70;99.90
11095;DHT22;5601;44.490;11.400;2023-02-02T02:23:27;5.60;99.90
11095;DHT22;5601;44.490;11.400;2023-02-02T02:26:21;5.60;99.90
11095;DHT22;5601;44.490;11.400;2023-02-02T02:29:11;5.60;99.90
11095;DHT22;5601;44.490;11.400;2023-02-02T02:32:06;5.60;99.90
11095;DHT22;5601;44.490;11.400;2023-02-02T02:34:42;5.50;99.90
11095;DHT22;5601;44.490;11.400;2023-02-02T02:37:12;5.50;99.90
11095;DHT22;5601;44.490;11.400;2023-02-02T02:39:42;5.40;99.90
11095;DHT22;5601;44.490;11.400;2023-02-02T02:42:12;5.40;99.90
11095;DHT22;5601;44.490;11.400;2023-02-02T02:44:40;5.40;99.90
11095;DHT22;5601;44.490;11.400;2023-02-02T02:47:08;5.40;99.90
11095;DHT22;5601;44.490;11.400;2023-02-02T02:49:40;5.40;99.90
11095;DHT22;5601;44.490;11.400;2023-02-02T02:52:07;5.40;99.90
11095;DHT22;5601;44.490;11.400;2023-02-02T02:54:34;5.30;99.90
11095;DHT22;5601;44.490;11.400;2023-02-02T02:57:05;5.30;99.90
11095;DHT22;5601;44.490;11.400;2023-02-02T02:59:36;5.30;99.90
11095;DHT22;5601;44.490;11.400;2023-02-02T03:02:16;5.30;99.90
11095;DHT22;5601;44.490;11.400;2023-02-02T03:04:45;5.30;99.90
11095;DHT22;5601;44.490;11.400;2023-02-02T03:07:17;5.30;99.90
11095;DHT22;5601;44.490;11.400;2023-02-02T03:09:45;5.30;99.90
11095;DHT22;5601;44.490;11.400;2023-02-02T03:12:14;5.30;99.90
11095;DHT22;5601;44.490;11.400;2023-02-02T03:14:41;5.40;99.90
11095;DHT22;5601;44.490;11.400;2023-02-02T03:17:08;5.40;99.90
11095;DHT22;5601;44.490;11.400;2023-02-02T03:19:36;5.60;99.90
11095;DHT22;5601;44.490;11.400;2023-02-02T03:22:02;5.60;99.90
11095;DHT22;5601;44.490;11.400;2023-02-02T03:24:29;5.80;99.90
11095;DHT22;5601;44.490;11.400;2023-02-02T03:26:56;5.90;99.90
11095;DHT22;5601;44.490;11.400;2023-02-02T03:29:23;6.10;99.90
11095;DHT22;5601;44.490;11.400;2023-02-02T03:31:49;6.20;99.90
11095;DHT22;5601;44.490;11.400;2023-02-02T03:34:16;6.40;99.90
11095;DHT22;5601;44.490;11.400;2023-02-02T03:36:44;6.40;99.90
11095;DHT22;5601;44.490;11.400;2023-02-02T03:39:11;6.50;99.90
11095;DHT22;5601;44.490;11.400;2023-02-02T03:41:38;6.50;99.90
11095;DHT22;5601;44.490;11.400;2023-02-02T03:44:04;6.40;99.90
11095;DHT22;5601;44.490;11.400;2023-02-02T03:46:31;6.20;99.90
11095;DHT22;5601;44.490;11.400;2023-02-02T03:48:58;6.20;99.90
11095;DHT22;5601;44.490;11.400;2023-02-02T03:51:24;6.20;99.90
11095;DHT22;5601;44.490;11.400;2023-02-02T03:53:52;6.10;99.90
11095;DHT22;5601;44.490;11.400;2023-02-02T03:56:19;6.10;99.90
11095;DHT22;5601;44.490;11.400;2023-02-02T03:58:46;6.00;99.90
11095;DHT22;5601;44.490;11.400;2023-02-02T04:01:13;5.90;99.90
11095;DHT22;5601;44.490;11.400;2023-02-02T04:03:40;5.90;99.90
11095;DHT22;5601;44.490;11.400;2023-02-02T04:06:06;5.80;99.90
11095;DHT22;5601;44.490;11.400;2023-02-02T04:08:33;5.80;99.90
11095;DHT22;5601;44.490;11.400;2023-02-02T04:11:01;5.70;99.90
11095;DHT22;5601;44.490;11.400;2023-02-02T04:13:28;5.60;99.90
11095;DHT22;5601;44.490;11.400;2023-02-02T04:15:55;5.50;99.90
11095;DHT22;5601;44.490;11.400;2023-02-02T04:18:22;5.40;99.90
11095;DHT22;5601;44.490;11.400;2023-02-02T04:20:49;5.30;99.90
11095;DHT22;5601;44.490;11.400;2023-02-02T04:23:16;5.20;99.90
11095;DHT22;5601;44.490;11.400;2023-02-02T04:25:47;5.20;99.90
11095;DHT22;5601;44.490;11.400;2023-02-02T04:28:15;5.10;99.90
11095;DHT22;5601;44.490;11.400;2023-02-02T04:30:42;5.10;99.90
11095;DHT22;5601;44.490;11.400;2023-02-02T04:33:08;5.00;99.90
11095;DHT22;5601;44.490;11.400;2023-02-02T04:35:35;5.00;99.90
11095;DHT22;5601;44.490;11.400;2023-02-02T04:38:02;5.00;99.90
11095;DHT22;5601;44.490;11.400;2023-02-02T04:40:28;4.90;99.90
11095;DHT22;5601;44.490;11.400;2023-02-02T04:42:56;4.90;99.90
11095;DHT22;5601;44.490;11.400;2023-02-02T04:45:24;4.90;99.90
11095;DHT22;5601;44.490;11.400;2023-02-02T04:47:51;4.90;99.90
11095;DHT22;5601;44.490;11.400;2023-02-02T04:50:17;4.80;99.90
11095;DHT22;5601;44.490;11.400;2023-02-02T04:52:44;4.70;99.90
11095;DHT22;5601;44.490;11.400;2023-02-02T04:55:11;4.70;99.90
11095;DHT22;5601;44.490;11.400;2023-02-02T04:57:37;4.60;99.90
11095;DHT22;5601;44.490;11.400;2023-02-02T05:00:04;4.50;99.90
11095;DHT22;5601;44.490;11.400;2023-02-02T05:02:35;4.40;99.90
11095;DHT22;5601;44.490;11.400;2023-02-02T05:05:02;4.40;99.90
11095;DHT22;5601;44.490;11.400;2023-02-02T05:07:28;4.40;99.90
11095;DHT22;5601;44.490;11.400;2023-02-02T05:09:55;4.30;99.90
11095;DHT22;5601;44.490;11.400;2023-02-02T05:12:22;4.30;99.90
11095;DHT22;5601;44.490;11.400;2023-02-02T05:14:49;4.40;99.90
11095;DHT22;5601;44.490;11.400;2023-02-02T07:38:06;5.30;99.90
11095;DHT22;5601;44.490;11.400;2023-02-02T07:40:33;5.50;99.90
11095;DHT22;5601;44.490;11.400;2023-02-02T07:43:00;5.70;99.90
11095;DHT22;5601;44.490;11.400;2023-02-02T07:45:27;5.80;99.90
11095;DHT22;5601;44.490;11.400;2023-02-02T07:47:56;5.90;99.90
11095;DHT22;5601;44.490;11.400;2023-02-02T07:50:23;6.00;99.90
11095;DHT22;5601;44.490;11.400;2023-02-02T07:52:50;6.10;99.90
11095;DHT22;5601;44.490;11.400;2023-02-02T07:55:18;6.10;99.90
11095;DHT22;5601;44.490;11.400;2023-02-02T07:57:45;6.20;99.90
11095;DHT22;5601;44.490;11.400;2023-02-02T08:00:12;6.30;99.90
11095;DHT22;5601;44.490;11.400;2023-02-02T08:02:39;6.40;99.90
11095;DHT22;5601;44.490;11.400;2023-02-02T08:05:06;6.50;99.90
11095;DHT22;5601;44.490;11.400;2023-02-02T08:07:33;6.60;99.90
11095;DHT22;5601;44.490;11.400;2023-02-02T08:09:59;6.70;99.90
11095;DHT22;5601;44.490;11.400;2023-02-02T08:12:28;6.90;99.90
11095;DHT22;5601;44.490;11.400;2023-02-02T08:14:54;7.00;99.90
11095;DHT22;5601;44.490;11.400;2023-02-02T08:17:22;7.00;99.90
11095;DHT22;5601;44.490;11.400;2023-02-02T08:19:49;7.00;99.90
11095;DHT22;5601;44.490;11.400;2023-02-02T08:22:16;7.00;99.90
11095;DHT22;5601;44.490;11.400;2023-02-02T08:24:43;7.00;99.90
11095;DHT22;5601;44.490;11.400;2023-02-02T08:27:09;7.10;99.90
11095;DHT22;5601;44.490;11.400;2023-02-02T08:29:37;7.10;99.90
11095;DHT22;5601;44.490;11.400;2023-02-02T08:32:04;7.10;99.90
11095;DHT22;5601;44.490;11.400;2023-02-02T08:34:31;7.20;99.90
11095;DHT22;5601;44.490;11.400;2023-02-02T08:37:01;7.20;99.90
11095;DHT22;5601;44.490;11.400;2023-02-02T08:39:27;7.30;99.90
11095;DHT22;5601;44.490;11.400;2023-02-02T08:41:54;7.40;99.90
11095;DHT22;5601;44.490;11.400;2023-02-02T08:44:21;7.50;99.90
11095;DHT22;5601;44.490;11.400;2023-02-02T08:46:50;7.60;99.90
11095;DHT22;5601;44.490;11.400;2023-02-02T08:49:17;7.70;99.90
11095;DHT22;5601;44.490;11.400;2023-02-02T08:51:43;7.80;99.90
11095;DHT22;5601;44.490;11.400;2023-02-02T08:54:10;7.90;99.90
11095;DHT22;5601;44.490;11.400;2023-02-02T08:56:37;8.00;99.90
11095;DHT22;5601;44.490;11.400;2023-02-02T08:59:03;8.10;99.90
11095;DHT22;5601;44.490;11.400;2023-02-02T09:01:31;8.20;99.90
11095;DHT22;5601;44.490;11.400;2023-02-02T09:04:00;8.40;99.90
11095;DHT22;5601;44.490;11.400;2023-02-02T09:06:27;8.50;99.90
11095;DHT22;5601;44.490;11.400;2023-02-02T09:08:54;8.50;99.90
11095;DHT22;5601;44.490;11.400;2023-02-02T09:11:21;8.60;99.90
11095;DHT22;5601;44.490;11.400;2023-02-02T09:13:48;8.70;99.90
11095;DHT22;5601;44.490;11.400;2023-02-02T09:16:15;8.70;99.90
11095;DHT22;5601;44.490;11.400;2023-02-02T09:18:43;8.80;99.90
11095;DHT22;5601;44.490;11.400;2023-02-02T09:21:12;8.90;99.90
11095;DHT22;5601;44.490;11.400;2023-02-02T09:23:39;9.10;99.90
11095;DHT22;5601;44.490;11.400;2023-02-02T09:26:10;9.20;99.90
11095;DHT22;5601;44.490;11.400;2023-02-02T09:28:37;9.30;99.90
11095;DHT22;5601;44.490;11.400;2023-02-02T09:31:04;9.40;99.90
11095;DHT22;5601;44.490;11.400;2023-02-02T09:33:30;9.60;99.90
11095;DHT22;5601;44.490;11.400;2023-02-02T09:36:02;9.70;99.90
11095;DHT22;5601;44.490;11.400;2023-02-02T09:38:30;9.80;99.90
11095;DHT22;5601;44.490;11.400;2023-02-02T09:40:58;9.90;99.90
11095;DHT22;5601;44.490;11.400;2023-02-02T09:43:34;10.10;99.90
11095;DHT22;5601;44.490;11.400;2023-02-02T09:46:04;10.20;99.90
11095;DHT22;5601;44.490;11.400;2023-02-02T09:48:35;10.30;99.90
11095;DHT22;5601;44.490;11.400;2023-02-02T09:51:08;10.50;99.90
11095;DHT22;5601;44.490;11.400;2023-02-02T09:53:41;10.60;99.90
11095;DHT22;5601;44.490;11.400;2023-02-02T09:56:10;10.70;99.90
11095;DHT22;5601;44.490;11.400;2023-02-02T09:58:42;10.80;99.90
11095;DHT22;5601;44.490;11.400;2023-02-02T10:01:11;10.90;99.90
11095;DHT22;5601;44.490;11.400;2023-02-02T10:03:40;11.00;99.90
11095;DHT22;5601;44.490;11.400;2023-02-02T10:06:11;11.20;99.90
11095;DHT22;5601;44.490;11.400;2023-02-02T10:08:42;11.30;99.90
11095;DHT22;5601;44.490;11.400;2023-02-02T10:11:18;11.40;99.90
11095;DHT22;5601;44.490;11.400;2023-02-02T10:13:49;11.50;99.90
11095;DHT22;5601;44.490;11.400;2023-02-02T10:16:18;11.70;99.90
11095;DHT22;5601;44.490;11.400;2023-02-02T10:18:47;11.80;99.90
11095;DHT22;5601;44.490;11.400;2023-02-02T10:21:19;11.90;99.90
11095;DHT22;5601;44.490;11.400;2023-02-02T10:23:49;12.00;99.90
11095;DHT22;5601;44.490;11.400;2023-02-02T10:26:18;12.20;99.90
11095;DHT22;5601;44.490;11.400;2023-02-02T10:28:51;12.30;99.90
11095;DHT22;5601;44.490;11.400;2023-02-02T10:31:23;12.50;99.90
11095;DHT22;5601;44.490;11.400;2023-02-02T10:33:57;12.80;99.90
11095;DHT22;5601;44.490;11.400;2023-02-02T10:36:28;13.10;99.90
11095;DHT22;5601;44.490;11.400;2023-02-02T10:38:59;13.20;99.90
11095;DHT22;5601;44.490;11.400;2023-02-02T10:41:30;13.40;99.90
11095;DHT22;5601;44.490;11.400;2023-02-02T10:44:05;13.50;99.90
11095;DHT22;5601;44.490;11.400;2023-02-02T10:46:35;13.60;99.90
11095;DHT22;5601;44.490;11.400;2023-02-02T10:49:19;13.80;99.90
11095;DHT22;5601;44.490;11.400;2023-02-02T10:51:48;13.80;99.90
11095;DHT22;5601;44.490;11.400;2023-02-02T10:54:24;13.90;99.90
11095;DHT22;5601;44.490;11.400;2023-02-02T10:56:52;14.00;99.90
11095;DHT22;5601;44.490;11.400;2023-02-02T10:59:20;14.00;99.90
11095;DHT22;5601;44.490;11.400;2023-02-02T11:01:47;14.00;99.90
11095;DHT22;5601;44.490;11.400;2023-02-02T11:04:14;14.00;99.90
11095;DHT22;5601;44.490;11.400;2023-02-02T11:06:58;13.90;99.90
11095;DHT22;5601;44.490;11.400;2023-02-02T11:09:27;14.10;99.90
11095;DHT22;5601;44.490;11.400;2023-02-02T11:11:56;14.00;99.90
11095;DHT22;5601;44.490;11.400;2023-02-02T11:14:28;14.00;99.90
11095;DHT22;5601;44.490;11.400;2023-02-02T11:17:00;14.00;99.90
11095;DHT22;5601;44.490;11.400;2023-02-02T11:19:28;14.00;99.90
11095;DHT22;5601;44.490;11.400;2023-02-02T11:21:56;14.10;99.90
11095;DHT22;5601;44.490;11.400;2023-02-02T11:24:23;14.20;99.90
11095;DHT22;5601;44.490;11.400;2023-02-02T11:26:53;14.20;99.90
11095;DHT22;5601;44.490;11.400;2023-02-02T11:29:22;14.30;99.90
11095;DHT22;5601;44.490;11.400;2023-02-02T11:31:50;14.40;99.90
11095;DHT22;5601;44.490;11.400;2023-02-02T11:34:19;14.30;99.90
11095;DHT22;5601;44.490;11.400;2023-02-02T11:39:33;14.40;99.90
11095;DHT22;5601;44.490;11.400;2023-02-02T11:42:03;14.40;99.90
11095;DHT22;5601;44.490;11.400;2023-02-02T11:44:30;14.50;99.90
11095;DHT22;5601;44.490;11.400;2023-02-02T11:46:59;14.50;99.90
11095;DHT22;5601;44.490;11.400;2023-02-02T11:49:26;14.40;99.90
11095;DHT22;5601;44.490;11.400;2023-02-02T11:51:57;14.50;99.90
11095;DHT22;5601;44.490;11.400;2023-02-02T11:54:25;14.50;99.90
11095;DHT22;5601;44.490;11.400;2023-02-02T11:56:54;14.50;99.90
11095;DHT22;5601;44.490;11.400;2023-02-02T11:59:27;14.60;99.90
11095;DHT22;5601;44.490;11.400;2023-02-02T12:02:09;14.60;99.90
11095;DHT22;5601;44.490;11.400;2023-02-02T12:04:36;14.60;99.90
11095;DHT22;5601;44.490;11.400;2023-02-02T12:07:13;14.70;99.90
11095;DHT22;5601;44.490;11.400;2023-02-02T12:09:42;14.80;99.90
11095;DHT22;5601;44.490;11.400;2023-02-02T12:12:14;14.90;99.90
11095;DHT22;5601;44.490;11.400;2023-02-02T12:14:47;14.90;99.90
11095;DHT22;5601;44.490;11.400;2023-02-02T12:17:19;14.90;99.90
11095;DHT22;5601;44.490;11.400;2023-02-02T12:20:01;15.00;99.90
11095;DHT22;5601;44.490;11.400;2023-02-02T12:25:31;15.20;99.90
11095;DHT22;5601;44.490;11.400;2023-02-02T12:28:00;15.20;99.90
11095;DHT22;5601;44.490;11.400;2023-02-02T12:30:32;15.20;99.90
11095;DHT22;5601;44.490;11.400;2023-02-02T12:33:12;15.10;99.90
11095;DHT22;5601;44.490;11.400;2023-02-02T12:35:49;15.10;99.90
11095;DHT22;5601;44.490;11.400;2023-02-02T12:38:24;15.10;99.90
11095;DHT22;5601;44.490;11.400;2023-02-02T12:41:09;15.20;99.90
11095;DHT22;5601;44.490;11.400;2023-02-02T12:43:40;15.20;99.90
11095;DHT22;5601;44.490;11.400;2023-02-02T12:46:18;15.30;99.90
11095;DHT22;5601;44.490;11.400;2023-02-02T12:48:54;15.20;99.90
11095;DHT22;5601;44.490;11.400;2023-02-02T12:51:30;15.30;99.90
11095;DHT22;5601;44.490;11.400;2023-02-02T12:54:08;15.40;99.90
11095;DHT22;5601;44.490;11.400;2023-02-02T12:56:38;15.40;99.90
11095;DHT22;5601;44.490;11.400;2023-02-02T12:59:08;15.50;99.90
11095;DHT22;5601;44.490;11.400;2023-02-02T13:01:45;15.40;99.90
11095;DHT22;5601;44.490;11.400;2023-02-02T13:07:15;15.50;99.90
11095;DHT22;5601;44.490;11.400;2023-02-02T13:09:46;15.50;99.90
11095;DHT22;5601;44.490;11.400;2023-02-02T13:12:17;15.60;99.90
11095;DHT22;5601;44.490;11.400;2023-02-02T13:14:44;15.50;99.90
11095;DHT22;5601;44.490;11.400;2023-02-02T13:17:15;15.60;99.60
11095;DHT22;5601;44.490;11.400;2023-02-02T13:19:44;15.50;99.80
11095;DHT22;5601;44.490;11.400;2023-02-02T13:22:13;15.60;99.90
11095;DHT22;5601;44.490;11.400;2023-02-02T13:24:42;15.70;99.90
11095;DHT22;5601;44.490;11.400;2023-02-02T13:27:11;15.70;99.90
11095;DHT22;5601;44.490;11.400;2023-02-02T13:29:40;15.60;99.90
11095;DHT22;5601;44.490;11.400;2023-02-02T13:32:10;15.50;99.90
11095;DHT22;5601;44.490;11.400;2023-02-02T13:34:43;15.50;99.90
11095;DHT22;5601;44.490;11.400;2023-02-02T13:37:12;15.50;99.90
11095;DHT22;5601;44.490;11.400;2023-02-02T13:39:42;15.50;99.90
11095;DHT22;5601;44.490;11.400;2023-02-02T13:42:13;15.50;99.90
11095;DHT22;5601;44.490;11.400;2023-02-02T13:44:45;15.50;99.90
11095;DHT22;5601;44.490;11.400;2023-02-02T13:47:15;15.50;99.90
11095;DHT22;5601;44.490;11.400;2023-02-02T14:39:21;15.70;99.60
11095;DHT22;5601;44.490;11.400;2023-02-02T14:42:00;15.70;99.30
11095;DHT22;5601;44.490;11.400;2023-02-02T14:45:11;15.80;99.30
11095;DHT22;5601;44.490;11.400;2023-02-02T14:47:40;15.80;99.50
11095;DHT22;5601;44.490;11.400;2023-02-02T14:50:10;15.70;98.80
11095;DHT22;5601;44.490;11.400;2023-02-02T14:52:37;15.70;98.80
11095;DHT22;5601;44.490;11.400;2023-02-02T14:55:14;15.70;99.00
11095;DHT22;5601;44.490;11.400;2023-02-02T14:57:41;15.70;99.10
11095;DHT22;5601;44.490;11.400;2023-02-02T15:00:18;15.70;99.40
11095;DHT22;5601;44.490;11.400;2023-02-02T15:02:45;15.60;99.60
11095;DHT22;5601;44.490;11.400;2023-02-02T15:05:33;15.50;99.90
11095;DHT22;5601;44.490;11.400;2023-02-02T15:08:07;15.50;99.90
11095;DHT22;5601;44.490;11.400;2023-02-02T15:16:46;15.30;99.90
11095;DHT22;5601;44.490;11.400;2023-02-02T15:19:17;15.30;99.90
11095;DHT22;5601;44.490;11.400;2023-02-02T15:21:47;15.30;99.90
11095;DHT22;5601;44.490;11.400;2023-02-02T15:24:16;15.30;99.90
11095;DHT22;5601;44.490;11.400;2023-02-02T15:26:44;15.20;99.90
11095;DHT22;5601;44.490;11.400;2023-02-02T15:29:13;15.20;99.90
11095;DHT22;5601;44.490;11.400;2023-02-02T15:31:42;15.10;99.90
11095;DHT22;5601;44.490;11.400;2023-02-02T15:34:12;15.00;99.90
11095;DHT22;5601;44.490;11.400;2023-02-02T15:36:41;14.90;99.90
11095;DHT22;5601;44.490;11.400;2023-02-02T15:39:09;14.80;99.90
11095;DHT22;5601;44.490;11.400;2023-02-02T15:41:40;14.70;99.90
11095;DHT22;5601;44.490;11.400;2023-02-02T15:44:16;14.80;99.90
11095;DHT22;5601;44.490;11.400;2023-02-02T15:46:44;14.70;99.90
11095;DHT22;5601;44.490;11.400;2023-02-02T15:49:20;14.60;99.90
11095;DHT22;5601;44.490;11.400;2023-02-02T15:51:49;14.50;99.90
11095;DHT22;5601;44.490;11.400;2023-02-02T15:54:20;14.30;99.90
11095;DHT22;5601;44.490;11.400;2023-02-02T15:56:48;14.30;99.90
11095;DHT22;5601;44.490;11.400;2023-02-02T15:59:16;14.20;99.90
11095;DHT22;5601;44.490;11.400;2023-02-02T16:01:45;14.10;99.90
11095;DHT22;5601;44.490;11.400;2023-02-02T16:04:13;13.90;99.90
11095;DHT22;5601;44.490;11.400;2023-02-02T16:06:44;13.80;99.90
11095;DHT22;5601;44.490;11.400;2023-02-02T16:09:13;13.70;99.90
11095;DHT22;5601;44.490;11.400;2023-02-02T16:11:44;13.50;99.90
11095;DHT22;5601;44.490;11.400;2023-02-02T16:14:13;13.30;99.90
11095;DHT22;5601;44.490;11.400;2023-02-02T16:16:42;13.10;99.90
11095;DHT22;5601;44.490;11.400;2023-02-02T16:19:11;13.00;99.90
11095;DHT22;5601;44.490;11.400;2023-02-02T16:21:41;12.90;99.90
11095;DHT22;5601;44.490;11.400;2023-02-02T16:24:10;12.80;99.90
11095;DHT22;5601;44.490;11.400;2023-02-02T16:26:37;12.70;99.90
11095;DHT22;5601;44.490;11.400;2023-02-02T16:29:04;12.70;99.90
11095;DHT22;5601;44.490;11.400;2023-02-02T16:31:33;12.60;99.90
11095;DHT22;5601;44.490;11.400;2023-02-02T16:34:00;12.50;99.90
11095;DHT22;5601;44.490;11.400;2023-02-02T16:36:28;12.40;99.90
11095;DHT22;5601;44.490;11.400;2023-02-02T16:38:56;12.40;99.90
11095;DHT22;5601;44.490;11.400;2023-02-02T16:41:27;12.30;99.90
11095;DHT22;5601;44.490;11.400;2023-02-02T16:43:54;12.20;99.90
11095;DHT22;5601;44.490;11.400;2023-02-02T16:49:13;12.10;99.90
11095;DHT22;5601;44.490;11.400;2023-02-02T16:51:41;12.00;99.90
11095;DHT22;5601;44.490;11.400;2023-02-02T16:54:10;11.90;99.90
11095;DHT22;5601;44.490;11.400;2023-02-02T16:56:40;11.80;99.90
11095;DHT22;5601;44.490;11.400;2023-02-02T16:59:13;11.70;99.90
11095;DHT22;5601;44.490;11.400;2023-02-02T17:01:41;11.70;99.90
11095;DHT22;5601;44.490;11.400;2023-02-02T17:04:15;11.60;99.90
11095;DHT22;5601;44.490;11.400;2023-02-02T17:06:43;11.60;99.90
11095;DHT22;5601;44.490;11.400;2023-02-02T17:09:13;11.50;99.90
11095;DHT22;5601;44.490;11.400;2023-02-02T17:11:54;11.40;99.90
11095;DHT22;5601;44.490;11.400;2023-02-02T17:14:24;11.40;99.90
11095;DHT22;5601;44.490;11.400;2023-02-02T17:16:52;11.20;99.90
11095;DHT22;5601;44.490;11.400;2023-02-02T17:19:19;11.10;99.90
11095;DHT22;5601;44.490;11.400;2023-02-02T17:21:45;11.10;99.90
11095;DHT22;5601;44.490;11.400;2023-02-02T17:24:13;11.10;99.90
11095;DHT22;5601;44.490;11.400;2023-02-02T17:26:40;11.00;99.90
11095;DHT22;5601;44.490;11.400;2023-02-02T17:29:09;11.00;99.90
11095;DHT22;5601;44.490;11.400;2023-02-02T17:31:38;11.00;99.90
11095;DHT22;5601;44.490;11.400;2023-02-02T17:34:08;11.00;99.90
11095;DHT22;5601;44.490;11.400;2023-02-02T17:36:35;10.90;99.90
11095;DHT22;5601;44.490;11.400;2023-02-02T17:39:03;10.80;99.90
11095;DHT22;5601;44.490;11.400;2023-02-02T17:41:29;10.70;99.90
11095;DHT22;5601;44.490;11.400;2023-02-02T17:43:56;10.60;99.90
11095;DHT22;5601;44.490;11.400;2023-02-02T17:46:24;10.60;99.90
11095;DHT22;5601;44.490;11.400;2023-02-02T17:48:52;10.60;99.90
11095;DHT22;5601;44.490;11.400;2023-02-02T17:51:19;10.50;99.90
11095;DHT22;5601;44.490;11.400;2023-02-02T17:53:46;10.40;99.90
11095;DHT22;5601;44.490;11.400;2023-02-02T17:56:12;10.20;99.90
11095;DHT22;5601;44.490;11.400;2023-02-02T17:58:39;10.10;99.90
11095;DHT22;5601;44.490;11.400;2023-02-02T18:01:10;10.10;99.90
11095;DHT22;5601;44.490;11.400;2023-02-02T18:06:48;10.00;99.90
11095;DHT22;5601;44.490;11.400;2023-02-02T18:09:22;9.90;99.90
11095;DHT22;5601;44.490;11.400;2023-02-02T18:11:49;9.80;99.90
11095;DHT22;5601;44.490;11.400;2023-02-02T18:14:16;9.70;99.90
11095;DHT22;5601;44.490;11.400;2023-02-02T18:16:43;9.60;99.90
11095;DHT22;5601;44.490;11.400;2023-02-02T18:19:09;9.40;99.90
11095;DHT22;5601;44.490;11.400;2023-02-02T18:21:37;9.30;99.90
11095;DHT22;5601;44.490;11.400;2023-02-02T18:24:04;9.10;99.90
11095;DHT22;5601;44.490;11.400;2023-02-02T18:26:31;8.90;99.90
11095;DHT22;5601;44.490;11.400;2023-02-02T18:28:58;8.80;99.90
11095;DHT22;5601;44.490;11.400;2023-02-02T18:31:25;8.70;99.90
11095;DHT22;5601;44.490;11.400;2023-02-02T18:33:52;8.70;99.90
11095;DHT22;5601;44.490;11.400;2023-02-02T18:36:19;8.60;99.90
11095;DHT22;5601;44.490;11.400;2023-02-02T18:38:49;8.50;99.90
11095;DHT22;5601;44.490;11.400;2023-02-02T18:41:18;8.40;99.90
11095;DHT22;5601;44.490;11.400;2023-02-02T18:43:45;8.30;99.90
11095;DHT22;5601;44.490;11.400;2023-02-02T18:46:13;8.20;99.90
11095;DHT22;5601;44.490;11.400;2023-02-02T18:48:40;8.10;99.90
11095;DHT22;5601;44.490;11.400;2023-02-02T18:51:08;8.00;99.90
11095;DHT22;5601;44.490;11.400;2023-02-02T18:53:35;8.00;99.90
11095;DHT22;5601;44.490;11.400;2023-02-02T18:56:04;7.90;99.90
11095;DHT22;5601;44.490;11.400;2023-02-02T18:58:32;7.90;99.90
11095;DHT22;5601;44.490;11.400;2023-02-02T19:00:58;8.00;99.90
11095;DHT22;5601;44.490;11.400;2023-02-02T19:03:27;8.00;99.90
11095;DHT22;5601;44.490;11.400;2023-02-02T19:05:54;8.10;99.90
11095;DHT22;5601;44.490;11.400;2023-02-02T19:08:38;8.10;99.90
11095;DHT22;5601;44.490;11.400;2023-02-02T19:11:10;8.20;99.90
11095;DHT22;5601;44.490;11.400;2023-02-02T19:13:37;8.20;99.90
11095;DHT22;5601;44.490;11.400;2023-02-02T19:16:04;8.30;99.90
11095;DHT22;5601;44.490;11.400;2023-02-02T19:18:34;8.30;99.90
11095;DHT22;5601;44.490;11.400;2023-02-02T19:21:02;8.30;99.90
11095;DHT22;5601;44.490;11.400;2023-02-02T19:23:29;8.30;99.90
11095;DHT22;5601;44.490;11.400;2023-02-02T19:25:57;8.30;99.90
11095;DHT22;5601;44.490;11.400;2023-02-02T19:28:26;8.30;99.90